sensor_id;sensor_type;location;lat;lon;timestamp;P1;durP1;ratioP1;P2;durP2;ratioP2
13797;SDS011;6970;51.340;3.240;2023-02-15T00:01:50;109.73;;;58.33;;
13797;SDS011;6970;51.340;3.240;2023-02-15T00:04:19;102.53;;;55.90;;
13797;SDS011;6970;51.340;3.240;2023-02-15T00:06:48;105.83;;;58.23;;
13797;SDS011;6970;51.340;3.240;2023-02-15T00:09:15;102.50;;;56.03;;
13797;SDS011;6970;51.340;3.240;2023-02-15T00:11:42;99.23;;;56.73;;
13797;SDS011;6970;51.340;3.240;2023-02-15T00:14:17;93.77;;;53.77;;
13797;SDS011;6970;51.340;3.240;2023-02-15T00:16:49;104.40;;;55.47;;
13797;SDS011;6970;51.340;3.240;2023-02-15T00:19:18;102.23;;;55.90;;
13797;SDS011;6970;51.340;3.240;2023-02-15T00:21:46;94.10;;;54.10;;
13797;SDS011;6970;51.340;3.240;2023-02-15T00:24:15;98.17;;;54.10;;
13797;SDS011;6970;51.340;3.240;2023-02-15T00:26:44;105.63;;;57.73;;
13797;SDS011;6970;51.340;3.240;2023-02-15T00:29:13;97.17;;;56.67;;
13797;SDS011;6970;51.340;3.240;2023-02-15T00:31:41;108.27;;;56.37;;
13797;SDS011;6970;51.340;3.240;2023-02-15T00:36:43;102.37;;;55.33;;
13797;SDS011;6970;51.340;3.240;2023-02-15T00:39:11;102.43;;;55.73;;
13797;SDS011;6970;51.340;3.240;2023-02-15T00:41:38;103.13;;;56.07;;
13797;SDS011;6970;51.340;3.240;2023-02-15T00:44:06;104.43;;;59.07;;
13797;SDS011;6970;51.340;3.240;2023-02-15T00:46:34;111.43;;;59.90;;
13797;SDS011;6970;51.340;3.240;2023-02-15T00:49:02;109.67;;;58.93;;
13797;SDS011;6970;51.340;3.240;2023-02-15T00:51:29;111.07;;;59.63;;
13797;SDS011;6970;51.340;3.240;2023-02-15T00:53:57;92.50;;;53.30;;
13797;SDS011;6970;51.340;3.240;2023-02-15T00:56:24;83.23;;;48.40;;
13797;SDS011;6970;51.340;3.240;2023-02-15T00:58:51;95.00;;;52.57;;
13797;SDS011;6970;51.340;3.240;2023-02-15T01:01:18;92.30;;;50.50;;
13797;SDS011;6970;51.340;3.240;2023-02-15T01:03:47;97.00;;;54.00;;
13797;SDS011;6970;51.340;3.240;2023-02-15T01:06:14;97.13;;;55.27;;
13797;SDS011;6970;51.340;3.240;2023-02-15T01:08:43;102.07;;;53.17;;
13797;SDS011;6970;51.340;3.240;2023-02-15T01:11:12;106.30;;;54.83;;
13797;SDS011;6970;51.340;3.240;2023-02-15T01:13:49;106.30;;;57.23;;
13797;SDS011;6970;51.340;3.240;2023-02-15T01:16:22;110.47;;;58.57;;
13797;SDS011;6970;51.340;3.240;2023-02-15T01:18:50;113.83;;;56.77;;
13797;SDS011;6970;51.340;3.240;2023-02-15T01:21:19;107.10;;;57.90;;
13797;SDS011;6970;51.340;3.240;2023-02-15T01:23:48;109.67;;;60.37;;
13797;SDS011;6970;51.340;3.240;2023-02-15T01:26:16;123.20;;;62.43;;
13797;SDS011;6970;51.340;3.240;2023-02-15T01:28:43;115.67;;;58.80;;
13797;SDS011;6970;51.340;3.240;2023-02-15T01:31:13;114.70;;;60.37;;
13797;SDS011;6970;51.340;3.240;2023-02-15T01:33:42;113.87;;;59.33;;
13797;SDS011;6970;51.340;3.240;2023-02-15T01:36:09;112.03;;;62.50;;
13797;SDS011;6970;51.340;3.240;2023-02-15T01:38:36;114.83;;;62.10;;
13797;SDS011;6970;51.340;3.240;2023-02-15T01:41:03;127.00;;;63.10;;
13797;SDS011;6970;51.340;3.240;2023-02-15T01:43:53;119.67;;;61.37;;
13797;SDS011;6970;51.340;3.240;2023-02-15T01:46:22;118.37;;;62.43;;
13797;SDS011;6970;51.340;3.240;2023-02-15T01:49:11;117.60;;;63.40;;
13797;SDS011;6970;51.340;3.240;2023-02-15T01:51:42;106.90;;;60.90;;
13797;SDS011;6970;51.340;3.240;2023-02-15T01:54:16;113.70;;;59.43;;
13797;SDS011;6970;51.340;3.240;2023-02-15T01:56:44;110.97;;;60.97;;
13797;SDS011;6970;51.340;3.240;2023-02-15T01:59:14;113.27;;;64.13;;
13797;SDS011;6970;51.340;3.240;2023-02-15T02:01:44;111.70;;;60.97;;
13797;SDS011;6970;51.340;3.240;2023-02-15T02:04:22;108.33;;;60.47;;
13797;SDS011;6970;51.340;3.240;2023-02-15T02:07:06;112.43;;;61.63;;
13797;SDS011;6970;51.340;3.240;2023-02-15T02:09:35;108.90;;;57.57;;
13797;SDS011;6970;51.340;3.240;2023-02-15T02:12:03;97.60;;;54.87;;
13797;SDS011;6970;51.340;3.240;2023-02-15T02:14:30;93.23;;;53.60;;
13797;SDS011;6970;51.340;3.240;2023-02-15T02:28:01;86.70;;;50.37;;
13797;SDS011;6970;51.340;3.240;2023-02-15T02:41:38;88.23;;;51.27;;
13797;SDS011;6970;51.340;3.240;2023-02-15T02:44:40;95.87;;;54.53;;
13797;SDS011;6970;51.340;3.240;2023-02-15T02:47:12;96.10;;;53.60;;
13797;SDS011;6970;51.340;3.240;2023-02-15T02:50:07;95.77;;;53.53;;
13797;SDS011;6970;51.340;3.240;2023-02-15T02:55:21;95.97;;;53.77;;
13797;SDS011;6970;51.340;3.240;2023-02-15T03:01:04;95.83;;;53.40;;
13797;SDS011;6970;51.340;3.240;2023-02-15T03:03:49;89.03;;;49.67;;
13797;SDS011;6970;51.340;3.240;2023-02-15T03:06:24;85.93;;;47.33;;
13797;SDS011;6970;51.340;3.240;2023-02-15T03:12:12;82.13;;;46.73;;
13797;SDS011;6970;51.340;3.240;2023-02-15T03:14:44;83.60;;;46.07;;
13797;SDS011;6970;51.340;3.240;2023-02-15T03:17:15;83.10;;;47.03;;
13797;SDS011;6970;51.340;3.240;2023-02-15T03:19:45;83.67;;;44.80;;
13797;SDS011;6970;51.340;3.240;2023-02-15T03:24:59;76.93;;;43.53;;
13797;SDS011;6970;51.340;3.240;2023-02-15T03:28:00;73.70;;;42.57;;
13797;SDS011;6970;51.340;3.240;2023-02-15T03:30:31;81.27;;;43.97;;
13797;SDS011;6970;51.340;3.240;2023-02-15T03:33:00;75.77;;;41.10;;
13797;SDS011;6970;51.340;3.240;2023-02-15T03:36:18;76.03;;;43.70;;
13797;SDS011;6970;51.340;3.240;2023-02-15T03:38:29;79.30;;;46.03;;
13797;SDS011;6970;51.340;3.240;2023-02-15T03:41:01;79.23;;;47.27;;
13797;SDS011;6970;51.340;3.240;2023-02-15T03:49:02;69.40;;;40.43;;
13797;SDS011;6970;51.340;3.240;2023-02-15T03:51:37;67.90;;;39.93;;
13797;SDS011;6970;51.340;3.240;2023-02-15T03:54:08;69.33;;;40.87;;
13797;SDS011;6970;51.340;3.240;2023-02-15T03:56:36;73.57;;;43.60;;
13797;SDS011;6970;51.340;3.240;2023-02-15T03:59:05;88.70;;;47.97;;
13797;SDS011;6970;51.340;3.240;2023-02-15T04:04:41;74.87;;;43.80;;
13797;SDS011;6970;51.340;3.240;2023-02-15T04:07:12;85.27;;;46.27;;
13797;SDS011;6970;51.340;3.240;2023-02-15T04:09:39;76.37;;;44.13;;
13797;SDS011;6970;51.340;3.240;2023-02-15T04:12:25;70.63;;;43.40;;
13797;SDS011;6970;51.340;3.240;2023-02-15T04:14:52;81.53;;;46.37;;
13797;SDS011;6970;51.340;3.240;2023-02-15T04:17:37;74.47;;;44.83;;
13797;SDS011;6970;51.340;3.240;2023-02-15T04:20:05;72.47;;;42.30;;
13797;SDS011;6970;51.340;3.240;2023-02-15T04:22:50;58.67;;;37.03;;
13797;SDS011;6970;51.340;3.240;2023-02-15T04:25:36;53.50;;;35.20;;
13797;SDS011;6970;51.340;3.240;2023-02-15T04:28:03;52.20;;;33.27;;
13797;SDS011;6970;51.340;3.240;2023-02-15T04:30:30;51.33;;;34.40;;
13797;SDS011;6970;51.340;3.240;2023-02-15T04:32:57;52.73;;;34.80;;
13797;SDS011;6970;51.340;3.240;2023-02-15T04:35:24;61.33;;;34.10;;
13797;SDS011;6970;51.340;3.240;2023-02-15T04:37:52;58.60;;;36.23;;
13797;SDS011;6970;51.340;3.240;2023-02-15T04:40:19;64.10;;;38.40;;
13797;SDS011;6970;51.340;3.240;2023-02-15T04:42:49;61.77;;;37.57;;
13797;SDS011;6970;51.340;3.240;2023-02-15T04:45:16;57.60;;;32.97;;
13797;SDS011;6970;51.340;3.240;2023-02-15T04:47:43;54.73;;;33.37;;
13797;SDS011;6970;51.340;3.240;2023-02-15T04:50:11;100.70;;;34.60;;
13797;SDS011;6970;51.340;3.240;2023-02-15T04:52:38;89.23;;;35.23;;
13797;SDS011;6970;51.340;3.240;2023-02-15T04:55:05;62.67;;;33.70;;
13797;SDS011;6970;51.340;3.240;2023-02-15T04:57:32;107.10;;;32.90;;
13797;SDS011;6970;51.340;3.240;2023-02-15T04:59:59;47.17;;;31.10;;
13797;SDS011;6970;51.340;3.240;2023-02-15T05:02:26;52.33;;;33.83;;
13797;SDS011;6970;51.340;3.240;2023-02-15T05:04:53;61.23;;;34.60;;
13797;SDS011;6970;51.340;3.240;2023-02-15T05:07:20;60.97;;;35.30;;
13797;SDS011;6970;51.340;3.240;2023-02-15T05:09:47;63.33;;;36.17;;
13797;SDS011;6970;51.340;3.240;2023-02-15T05:12:14;65.40;;;37.80;;
13797;SDS011;6970;51.340;3.240;2023-02-15T05:14:41;75.97;;;41.17;;
13797;SDS011;6970;51.340;3.240;2023-02-15T05:17:08;74.87;;;40.80;;
13797;SDS011;6970;51.340;3.240;2023-02-15T05:19:35;75.93;;;40.77;;
13797;SDS011;6970;51.340;3.240;2023-02-15T05:22:02;66.13;;;40.43;;
13797;SDS011;6970;51.340;3.240;2023-02-15T05:24:30;68.37;;;40.00;;
13797;SDS011;6970;51.340;3.240;2023-02-15T05:27:15;72.87;;;41.80;;
13797;SDS011;6970;51.340;3.240;2023-02-15T05:30:00;71.83;;;40.87;;
13797;SDS011;6970;51.340;3.240;2023-02-15T05:32:28;71.43;;;42.03;;
13797;SDS011;6970;51.340;3.240;2023-02-15T05:34:55;72.23;;;41.63;;
13797;SDS011;6970;51.340;3.240;2023-02-15T05:37:22;77.27;;;43.07;;
13797;SDS011;6970;51.340;3.240;2023-02-15T05:39:49;70.60;;;40.63;;
13797;SDS011;6970;51.340;3.240;2023-02-15T05:42:16;67.60;;;41.80;;
13797;SDS011;6970;51.340;3.240;2023-02-15T05:44:43;77.73;;;43.83;;
13797;SDS011;6970;51.340;3.240;2023-02-15T05:47:10;71.33;;;43.07;;
13797;SDS011;6970;51.340;3.240;2023-02-15T05:49:37;70.63;;;42.87;;
13797;SDS011;6970;51.340;3.240;2023-02-15T05:52:04;71.63;;;42.87;;
13797;SDS011;6970;51.340;3.240;2023-02-15T05:54:31;77.80;;;43.83;;
13797;SDS011;6970;51.340;3.240;2023-02-15T05:56:58;69.43;;;42.10;;
13797;SDS011;6970;51.340;3.240;2023-02-15T05:59:25;68.37;;;42.07;;
13797;SDS011;6970;51.340;3.240;2023-02-15T06:01:52;69.50;;;42.27;;
13797;SDS011;6970;51.340;3.240;2023-02-15T06:04:19;74.70;;;43.07;;
13797;SDS011;6970;51.340;3.240;2023-02-15T06:06:46;72.43;;;43.37;;
13797;SDS011;6970;51.340;3.240;2023-02-15T06:09:13;72.53;;;42.50;;
13797;SDS011;6970;51.340;3.240;2023-02-15T06:11:40;74.43;;;43.67;;
13797;SDS011;6970;51.340;3.240;2023-02-15T06:14:07;75.07;;;42.37;;
13797;SDS011;6970;51.340;3.240;2023-02-15T06:16:34;79.77;;;44.33;;
13797;SDS011;6970;51.340;3.240;2023-02-15T06:19:01;82.27;;;44.10;;
13797;SDS011;6970;51.340;3.240;2023-02-15T06:21:29;77.93;;;43.40;;
13797;SDS011;6970;51.340;3.240;2023-02-15T06:23:57;79.23;;;45.03;;
13797;SDS011;6970;51.340;3.240;2023-02-15T06:26:24;81.77;;;45.87;;
13797;SDS011;6970;51.340;3.240;2023-02-15T06:28:51;85.80;;;44.53;;
13797;SDS011;6970;51.340;3.240;2023-02-15T06:31:18;76.27;;;43.13;;
13797;SDS011;6970;51.340;3.240;2023-02-15T06:33:45;80.10;;;43.50;;
13797;SDS011;6970;51.340;3.240;2023-02-15T06:36:12;81.07;;;44.30;;
13797;SDS011;6970;51.340;3.240;2023-02-15T06:38:40;74.67;;;44.83;;
13797;SDS011;6970;51.340;3.240;2023-02-15T06:41:07;80.83;;;43.23;;
13797;SDS011;6970;51.340;3.240;2023-02-15T06:43:34;79.67;;;44.60;;
13797;SDS011;6970;51.340;3.240;2023-02-15T06:46:01;78.80;;;44.70;;
13797;SDS011;6970;51.340;3.240;2023-02-15T06:48:29;77.37;;;44.10;;
13797;SDS011;6970;51.340;3.240;2023-02-15T06:50:56;82.83;;;45.80;;
13797;SDS011;6970;51.340;3.240;2023-02-15T06:53:23;80.13;;;44.43;;
13797;SDS011;6970;51.340;3.240;2023-02-15T06:55:49;82.83;;;45.00;;
13797;SDS011;6970;51.340;3.240;2023-02-15T06:58:16;81.57;;;46.87;;
13797;SDS011;6970;51.340;3.240;2023-02-15T07:00:43;81.60;;;46.60;;
13797;SDS011;6970;51.340;3.240;2023-02-15T07:03:12;84.97;;;47.20;;
13797;SDS011;6970;51.340;3.240;2023-02-15T07:05:40;78.30;;;43.53;;
13797;SDS011;6970;51.340;3.240;2023-02-15T07:08:07;73.37;;;43.37;;
13797;SDS011;6970;51.340;3.240;2023-02-15T07:10:34;81.33;;;43.57;;
13797;SDS011;6970;51.340;3.240;2023-02-15T07:13:01;73.73;;;45.07;;
13797;SDS011;6970;51.340;3.240;2023-02-15T07:15:28;81.67;;;43.93;;
13797;SDS011;6970;51.340;3.240;2023-02-15T07:17:56;79.43;;;44.97;;
13797;SDS011;6970;51.340;3.240;2023-02-15T07:20:24;76.83;;;45.53;;
13797;SDS011;6970;51.340;3.240;2023-02-15T07:22:51;74.27;;;43.43;;
13797;SDS011;6970;51.340;3.240;2023-02-15T07:25:19;72.67;;;44.17;;
13797;SDS011;6970;51.340;3.240;2023-02-15T07:27:47;70.23;;;43.43;;
13797;SDS011;6970;51.340;3.240;2023-02-15T07:30:15;72.73;;;41.50;;
13797;SDS011;6970;51.340;3.240;2023-02-15T07:32:43;71.63;;;42.20;;
13797;SDS011;6970;51.340;3.240;2023-02-15T07:35:32;67.13;;;41.43;;
13797;SDS011;6970;51.340;3.240;2023-02-15T07:38:00;63.97;;;40.40;;
13797;SDS011;6970;51.340;3.240;2023-02-15T07:40:27;67.90;;;39.80;;
13797;SDS011;6970;51.340;3.240;2023-02-15T07:42:56;65.10;;;39.67;;
13797;SDS011;6970;51.340;3.240;2023-02-15T07:45:25;61.77;;;38.97;;
13797;SDS011;6970;51.340;3.240;2023-02-15T07:47:53;64.93;;;40.73;;
13797;SDS011;6970;51.340;3.240;2023-02-15T07:50:20;66.87;;;39.43;;
13797;SDS011;6970;51.340;3.240;2023-02-15T07:52:47;58.97;;;39.53;;
13797;SDS011;6970;51.340;3.240;2023-02-15T07:55:14;60.60;;;39.17;;
13797;SDS011;6970;51.340;3.240;2023-02-15T07:57:45;65.33;;;39.20;;
13797;SDS011;6970;51.340;3.240;2023-02-15T08:00:13;59.97;;;39.07;;
13797;SDS011;6970;51.340;3.240;2023-02-15T08:02:49;56.17;;;37.97;;
13797;SDS011;6970;51.340;3.240;2023-02-15T08:05:37;58.30;;;37.27;;
13797;SDS011;6970;51.340;3.240;2023-02-15T08:08:05;53.03;;;39.27;;
13797;SDS011;6970;51.340;3.240;2023-02-15T08:10:33;50.10;;;35.57;;
13797;SDS011;6970;51.340;3.240;2023-02-15T08:13:20;50.17;;;36.30;;
13797;SDS011;6970;51.340;3.240;2023-02-15T08:15:51;48.67;;;36.33;;
13797;SDS011;6970;51.340;3.240;2023-02-15T08:18:17;50.03;;;36.23;;
13797;SDS011;6970;51.340;3.240;2023-02-15T08:20:50;49.63;;;36.97;;
13797;SDS011;6970;51.340;3.240;2023-02-15T08:23:17;53.40;;;37.37;;
13797;SDS011;6970;51.340;3.240;2023-02-15T08:25:44;47.97;;;35.97;;
13797;SDS011;6970;51.340;3.240;2023-02-15T08:28:11;46.63;;;36.63;;
13797;SDS011;6970;51.340;3.240;2023-02-15T08:30:38;48.80;;;35.47;;
13797;SDS011;6970;51.340;3.240;2023-02-15T08:33:05;47.57;;;35.77;;
13797;SDS011;6970;51.340;3.240;2023-02-15T08:35:33;47.70;;;35.73;;
13797;SDS011;6970;51.340;3.240;2023-02-15T08:38:01;46.70;;;35.27;;
13797;SDS011;6970;51.340;3.240;2023-02-15T08:40:28;41.57;;;34.20;;
13797;SDS011;6970;51.340;3.240;2023-02-15T08:42:55;46.20;;;36.37;;
13797;SDS011;6970;51.340;3.240;2023-02-15T08:45:21;48.80;;;36.63;;
13797;SDS011;6970;51.340;3.240;2023-02-15T08:47:50;48.07;;;36.97;;
13797;SDS011;6970;51.340;3.240;2023-02-15T08:50:17;49.57;;;36.27;;
13797;SDS011;6970;51.340;3.240;2023-02-15T08:52:44;46.13;;;35.20;;
13797;SDS011;6970;51.340;3.240;2023-02-15T08:55:11;48.13;;;36.63;;
13797;SDS011;6970;51.340;3.240;2023-02-15T08:57:38;50.47;;;36.87;;
13797;SDS011;6970;51.340;3.240;2023-02-15T09:00:11;45.67;;;34.30;;
13797;SDS011;6970;51.340;3.240;2023-02-15T09:02:38;47.17;;;36.53;;
13797;SDS011;6970;51.340;3.240;2023-02-15T09:05:05;50.80;;;37.00;;
13797;SDS011;6970;51.340;3.240;2023-02-15T09:07:32;52.77;;;37.20;;
13797;SDS011;6970;51.340;3.240;2023-02-15T09:09:59;50.70;;;38.40;;
13797;SDS011;6970;51.340;3.240;2023-02-15T09:12:26;47.70;;;36.17;;
13797;SDS011;6970;51.340;3.240;2023-02-15T09:14:53;48.40;;;35.10;;
13797;SDS011;6970;51.340;3.240;2023-02-15T09:17:20;47.53;;;34.87;;
13797;SDS011;6970;51.340;3.240;2023-02-15T09:19:47;52.00;;;37.97;;
13797;SDS011;6970;51.340;3.240;2023-02-15T09:22:14;50.77;;;36.63;;
13797;SDS011;6970;51.340;3.240;2023-02-15T09:24:41;49.00;;;36.03;;
13797;SDS011;6970;51.340;3.240;2023-02-15T09:27:08;47.27;;;37.07;;
13797;SDS011;6970;51.340;3.240;2023-02-15T09:29:35;46.70;;;34.13;;
13797;SDS011;6970;51.340;3.240;2023-02-15T09:32:02;45.63;;;36.67;;
13797;SDS011;6970;51.340;3.240;2023-02-15T09:34:29;46.87;;;35.90;;
13797;SDS011;6970;51.340;3.240;2023-02-15T09:36:59;40.30;;;34.43;;
13797;SDS011;6970;51.340;3.240;2023-02-15T09:39:26;46.03;;;33.27;;
13797;SDS011;6970;51.340;3.240;2023-02-15T09:52:53;42.60;;;34.20;;
13797;SDS011;6970;51.340;3.240;2023-02-15T10:01:24;38.80;;;32.67;;
13797;SDS011;6970;51.340;3.240;2023-02-15T10:06:49;40.67;;;32.90;;
13797;SDS011;6970;51.340;3.240;2023-02-15T10:15:14;40.07;;;33.70;;
13797;SDS011;6970;51.340;3.240;2023-02-15T10:29:03;37.50;;;32.43;;
13797;SDS011;6970;51.340;3.240;2023-02-15T10:31:49;41.43;;;32.87;;
13797;SDS011;6970;51.340;3.240;2023-02-15T10:34:20;39.47;;;32.90;;
13797;SDS011;6970;51.340;3.240;2023-02-15T10:50:51;38.60;;;30.67;;
13797;SDS011;6970;51.340;3.240;2023-02-15T11:01:34;42.47;;;32.33;;
13797;SDS011;6970;51.340;3.240;2023-02-15T11:06:49;38.73;;;31.03;;
13797;SDS011;6970;51.340;3.240;2023-02-15T11:09:25;42.20;;;31.97;;
13797;SDS011;6970;51.340;3.240;2023-02-15T11:11:59;42.07;;;33.67;;
13797;SDS011;6970;51.340;3.240;2023-02-15T11:17:19;41.10;;;32.17;;
13797;SDS011;6970;51.340;3.240;2023-02-15T11:22:46;40.53;;;32.83;;
13797;SDS011;6970;51.340;3.240;2023-02-15T11:25:17;41.17;;;34.90;;
13797;SDS011;6970;51.340;3.240;2023-02-15T11:27:48;37.33;;;33.33;;
13797;SDS011;6970;51.340;3.240;2023-02-15T11:30:20;39.33;;;33.90;;
13797;SDS011;6970;51.340;3.240;2023-02-15T11:32:55;34.87;;;30.27;;
13797;SDS011;6970;51.340;3.240;2023-02-15T11:35:32;36.80;;;32.80;;
13797;SDS011;6970;51.340;3.240;2023-02-15T11:38:29;39.97;;;32.57;;
13797;SDS011;6970;51.340;3.240;2023-02-15T11:41:12;37.80;;;31.43;;
13797;SDS011;6970;51.340;3.240;2023-02-15T11:43:44;37.47;;;32.40;;
13797;SDS011;6970;51.340;3.240;2023-02-15T11:46:24;41.57;;;33.63;;
13797;SDS011;6970;51.340;3.240;2023-02-15T11:48:51;41.60;;;33.37;;
13797;SDS011;6970;51.340;3.240;2023-02-15T11:51:18;41.57;;;33.77;;
13797;SDS011;6970;51.340;3.240;2023-02-15T11:53:49;48.07;;;35.93;;
13797;SDS011;6970;51.340;3.240;2023-02-15T11:56:26;40.63;;;33.57;;
13797;SDS011;6970;51.340;3.240;2023-02-15T11:58:59;42.77;;;31.47;;
13797;SDS011;6970;51.340;3.240;2023-02-15T12:01:35;43.50;;;34.20;;
13797;SDS011;6970;51.340;3.240;2023-02-15T12:06:59;44.33;;;32.73;;
13797;SDS011;6970;51.340;3.240;2023-02-15T12:15:02;41.50;;;31.87;;
13797;SDS011;6970;51.340;3.240;2023-02-15T12:17:35;37.90;;;30.27;;
13797;SDS011;6970;51.340;3.240;2023-02-15T12:22:52;40.30;;;30.10;;
13797;SDS011;6970;51.340;3.240;2023-02-15T12:28:00;38.23;;;29.93;;
13797;SDS011;6970;51.340;3.240;2023-02-15T12:30:34;35.67;;;29.83;;
13797;SDS011;6970;51.340;3.240;2023-02-15T12:33:08;38.80;;;30.33;;
13797;SDS011;6970;51.340;3.240;2023-02-15T12:35:40;41.27;;;29.80;;
13797;SDS011;6970;51.340;3.240;2023-02-15T12:40:37;39.87;;;29.83;;
13797;SDS011;6970;51.340;3.240;2023-02-15T12:46:24;34.30;;;26.27;;
13797;SDS011;6970;51.340;3.240;2023-02-15T12:49:05;36.73;;;28.63;;
13797;SDS011;6970;51.340;3.240;2023-02-15T12:56:49;34.53;;;26.43;;
13797;SDS011;6970;51.340;3.240;2023-02-15T12:59:16;32.07;;;25.53;;
13797;SDS011;6970;51.340;3.240;2023-02-15T13:01:48;30.20;;;25.57;;
13797;SDS011;6970;51.340;3.240;2023-02-15T13:04:29;35.20;;;27.13;;
13797;SDS011;6970;51.340;3.240;2023-02-15T13:07:00;33.03;;;27.37;;
13797;SDS011;6970;51.340;3.240;2023-02-15T13:12:16;36.07;;;28.13;;
13797;SDS011;6970;51.340;3.240;2023-02-15T13:14:50;34.37;;;27.03;;
13797;SDS011;6970;51.340;3.240;2023-02-15T13:17:25;33.97;;;27.37;;
13797;SDS011;6970;51.340;3.240;2023-02-15T13:19:58;35.83;;;26.53;;
13797;SDS011;6970;51.340;3.240;2023-02-15T13:22:40;31.77;;;24.77;;
13797;SDS011;6970;51.340;3.240;2023-02-15T13:25:22;31.57;;;23.70;;
13797;SDS011;6970;51.340;3.240;2023-02-15T13:27:52;30.97;;;25.60;;
13797;SDS011;6970;51.340;3.240;2023-02-15T13:30:24;34.17;;;26.80;;
13797;SDS011;6970;51.340;3.240;2023-02-15T13:32:54;28.50;;;25.40;;
13797;SDS011;6970;51.340;3.240;2023-02-15T13:35:24;31.00;;;25.00;;
13797;SDS011;6970;51.340;3.240;2023-02-15T13:38:16;36.27;;;26.80;;
13797;SDS011;6970;51.340;3.240;2023-02-15T13:41:03;32.03;;;23.73;;
13797;SDS011;6970;51.340;3.240;2023-02-15T13:43:59;33.10;;;25.00;;
13797;SDS011;6970;51.340;3.240;2023-02-15T13:49:39;30.67;;;25.27;;
13797;SDS011;6970;51.340;3.240;2023-02-15T13:52:30;31.17;;;25.23;;
13797;SDS011;6970;51.340;3.240;2023-02-15T14:09:22;28.13;;;22.73;;
13797;SDS011;6970;51.340;3.240;2023-02-15T14:17:20;28.97;;;22.10;;
13797;SDS011;6970;51.340;3.240;2023-02-15T14:22:31;26.90;;;21.70;;
13797;SDS011;6970;51.340;3.240;2023-02-15T14:27:49;31.23;;;21.13;;
13797;SDS011;6970;51.340;3.240;2023-02-15T14:32:54;31.23;;;23.27;;
13797;SDS011;6970;51.340;3.240;2023-02-15T14:35:26;28.80;;;22.33;;
13797;SDS011;6970;51.340;3.240;2023-02-15T14:37:58;29.27;;;22.67;;
13797;SDS011;6970;51.340;3.240;2023-02-15T14:40:57;28.77;;;22.03;;
13797;SDS011;6970;51.340;3.240;2023-02-15T14:43:54;30.57;;;22.90;;
13797;SDS011;6970;51.340;3.240;2023-02-15T14:49:14;26.27;;;20.83;;
13797;SDS011;6970;51.340;3.240;2023-02-15T14:56:44;29.87;;;20.87;;
13797;SDS011;6970;51.340;3.240;2023-02-15T15:02:01;30.40;;;20.47;;
13797;SDS011;6970;51.340;3.240;2023-02-15T15:05:23;25.50;;;20.43;;
13797;SDS011;6970;51.340;3.240;2023-02-15T15:07:36;29.20;;;21.37;;
13797;SDS011;6970;51.340;3.240;2023-02-15T15:18:07;30.93;;;22.53;;
13797;SDS011;6970;51.340;3.240;2023-02-15T15:20:48;32.30;;;22.30;;
13797;SDS011;6970;51.340;3.240;2023-02-15T15:40:07;30.97;;;22.83;;
13797;SDS011;6970;51.340;3.240;2023-02-15T15:48:38;29.33;;;21.83;;
13797;SDS011;6970;51.340;3.240;2023-02-15T15:51:11;32.13;;;23.90;;
13797;SDS011;6970;51.340;3.240;2023-02-15T15:53:48;33.87;;;23.70;;
13797;SDS011;6970;51.340;3.240;2023-02-15T15:56:20;33.10;;;25.80;;
13797;SDS011;6970;51.340;3.240;2023-02-15T15:58:52;31.93;;;22.90;;
13797;SDS011;6970;51.340;3.240;2023-02-15T16:01:29;33.83;;;25.73;;
13797;SDS011;6970;51.340;3.240;2023-02-15T16:04:00;33.47;;;25.47;;
13797;SDS011;6970;51.340;3.240;2023-02-15T16:06:35;36.67;;;24.30;;
13797;SDS011;6970;51.340;3.240;2023-02-15T16:09:14;34.93;;;25.93;;
13797;SDS011;6970;51.340;3.240;2023-02-15T16:11:45;32.63;;;25.30;;
13797;SDS011;6970;51.340;3.240;2023-02-15T16:16:57;36.30;;;24.40;;
13797;SDS011;6970;51.340;3.240;2023-02-15T16:19:33;30.73;;;23.67;;
13797;SDS011;6970;51.340;3.240;2023-02-15T16:22:06;33.13;;;25.53;;
13797;SDS011;6970;51.340;3.240;2023-02-15T16:27:51;35.63;;;26.10;;
13797;SDS011;6970;51.340;3.240;2023-02-15T16:30:29;35.63;;;26.27;;
13797;SDS011;6970;51.340;3.240;2023-02-15T16:33:14;37.17;;;26.03;;
13797;SDS011;6970;51.340;3.240;2023-02-15T16:35:56;35.63;;;25.43;;
13797;SDS011;6970;51.340;3.240;2023-02-15T16:41:12;37.53;;;25.90;;
13797;SDS011;6970;51.340;3.240;2023-02-15T16:43:42;39.50;;;26.43;;
13797;SDS011;6970;51.340;3.240;2023-02-15T16:46:15;36.47;;;27.33;;
13797;SDS011;6970;51.340;3.240;2023-02-15T16:48:48;35.40;;;25.83;;
13797;SDS011;6970;51.340;3.240;2023-02-15T16:51:18;37.50;;;25.80;;
13797;SDS011;6970;51.340;3.240;2023-02-15T16:54:01;34.27;;;26.03;;
13797;SDS011;6970;51.340;3.240;2023-02-15T16:56:32;34.30;;;24.77;;
13797;SDS011;6970;51.340;3.240;2023-02-15T16:59:00;32.60;;;24.77;;
13797;SDS011;6970;51.340;3.240;2023-02-15T17:01:29;34.87;;;25.17;;
13797;SDS011;6970;51.340;3.240;2023-02-15T17:04:12;35.53;;;24.50;;
13797;SDS011;6970;51.340;3.240;2023-02-15T17:07:05;33.87;;;24.47;;
13797;SDS011;6970;51.340;3.240;2023-02-15T17:09:54;34.20;;;26.57;;
13797;SDS011;6970;51.340;3.240;2023-02-15T17:15:25;31.70;;;24.17;;
13797;SDS011;6970;51.340;3.240;2023-02-15T17:18:21;35.53;;;25.60;;
13797;SDS011;6970;51.340;3.240;2023-02-15T17:20:50;32.10;;;23.87;;
13797;SDS011;6970;51.340;3.240;2023-02-15T17:25:46;38.50;;;26.13;;
13797;SDS011;6970;51.340;3.240;2023-02-15T17:28:15;34.50;;;25.47;;
13797;SDS011;6970;51.340;3.240;2023-02-15T17:30:46;33.07;;;24.60;;
13797;SDS011;6970;51.340;3.240;2023-02-15T17:33:56;39.07;;;25.60;;
13797;SDS011;6970;51.340;3.240;2023-02-15T17:41:24;34.30;;;26.00;;
13797;SDS011;6970;51.340;3.240;2023-02-15T17:43:53;36.27;;;27.53;;
13797;SDS011;6970;51.340;3.240;2023-02-15T17:46:20;38.67;;;27.77;;
13797;SDS011;6970;51.340;3.240;2023-02-15T17:48:51;40.63;;;28.13;;
13797;SDS011;6970;51.340;3.240;2023-02-15T17:51:21;37.40;;;28.33;;
13797;SDS011;6970;51.340;3.240;2023-02-15T17:53:49;41.47;;;29.80;;
13797;SDS011;6970;51.340;3.240;2023-02-15T17:56:35;35.53;;;27.70;;
13797;SDS011;6970;51.340;3.240;2023-02-15T17:59:04;43.67;;;29.43;;
13797;SDS011;6970;51.340;3.240;2023-02-15T18:01:36;40.67;;;28.40;;
13797;SDS011;6970;51.340;3.240;2023-02-15T18:04:27;43.07;;;29.47;;
13797;SDS011;6970;51.340;3.240;2023-02-15T18:07:13;44.07;;;29.00;;
13797;SDS011;6970;51.340;3.240;2023-02-15T18:10:03;43.13;;;30.23;;
13797;SDS011;6970;51.340;3.240;2023-02-15T18:13:02;47.60;;;31.63;;
13797;SDS011;6970;51.340;3.240;2023-02-15T18:15:29;44.30;;;30.27;;
13797;SDS011;6970;51.340;3.240;2023-02-15T18:17:56;44.60;;;29.67;;
13797;SDS011;6970;51.340;3.240;2023-02-15T18:20:25;46.63;;;33.23;;
13797;SDS011;6970;51.340;3.240;2023-02-15T18:22:57;43.03;;;30.03;;
13797;SDS011;6970;51.340;3.240;2023-02-15T18:25:24;43.30;;;30.03;;
13797;SDS011;6970;51.340;3.240;2023-02-15T18:27:51;41.17;;;30.43;;
13797;SDS011;6970;51.340;3.240;2023-02-15T18:30:21;46.17;;;30.47;;
13797;SDS011;6970;51.340;3.240;2023-02-15T18:32:51;41.60;;;29.03;;
13797;SDS011;6970;51.340;3.240;2023-02-15T18:35:22;44.37;;;30.47;;
13797;SDS011;6970;51.340;3.240;2023-02-15T18:37:51;40.80;;;30.30;;
13797;SDS011;6970;51.340;3.240;2023-02-15T18:40:21;43.23;;;30.60;;
13797;SDS011;6970;51.340;3.240;2023-02-15T18:42:50;51.57;;;30.90;;
13797;SDS011;6970;51.340;3.240;2023-02-15T18:47:46;43.33;;;31.53;;
13797;SDS011;6970;51.340;3.240;2023-02-15T18:50:14;43.00;;;31.60;;
13797;SDS011;6970;51.340;3.240;2023-02-15T18:52:44;40.23;;;30.63;;
13797;SDS011;6970;51.340;3.240;2023-02-15T18:57:51;44.90;;;30.33;;